Time;durP1;ratioP1;P1;durP2;ratioP2;P2;SDS_P1;SDS_P2;PMS_P1;PMS_P2;Temp;Humidity;BMP_temperature;BMP_pressure;BME280_temperature;BME280_humidity;BME280_pressure;Samples;Min_cycle;Max_cycle;Signal;HPM_P1;HPM_P2
2021/12/22 00:01:39;;;;;;;27.90;14.57;;;-2.50;99.90;;;;;;5052690;28;20025;-83
2021/12/22 00:04:04;;;;;;;23.92;13.07;;;-2.10;99.90;;;;;;5052948;28;20483;-82
2021/12/22 00:06:33;;;;;;;24.58;13.55;;;-2.10;99.90;;;;;;5052728;28;20021;-82
2021/12/22 00:08:59;;;;;;;28.05;14.02;;;-1.90;99.90;;;;;;5052709;28;20021;-82
2021/12/22 00:11:25;;;;;;;25.73;15.27;;;-1.80;99.90;;;;;;5051313;28;20018;-82
2021/12/22 00:13:51;;;;;;;33.00;16.38;;;-2.30;99.90;;;;;;5052653;28;20024;-82
2021/12/22 00:16:17;;;;;;;28.13;15.18;;;-2.70;99.90;;;;;;5052520;28;20053;-82
2021/12/22 00:18:43;;;;;;;31.67;15.48;;;-2.90;99.90;;;;;;5052582;28;20070;-82
2021/12/22 00:21:10;;;;;;;32.33;15.75;;;-2.80;99.90;;;;;;5052413;28;20108;-82
2021/12/22 00:23:36;;;;;;;32.75;15.02;;;-2.60;99.90;;;;;;5056299;28;20049;-82
2021/12/22 00:26:03;;;;;;;29.42;15.65;;;-2.30;99.90;;;;;;5056620;28;20100;-82
2021/12/22 00:28:28;;;;;;;24.67;13.38;;;-2.50;99.90;;;;;;5054965;28;20121;-82
2021/12/22 00:30:55;;;;;;;28.05;14.65;;;-2.40;99.90;;;;;;5056174;28;20071;-82
2021/12/22 00:33:21;;;;;;;34.88;15.35;;;-2.60;99.90;;;;;;5054916;28;20025;-82
2021/12/22 00:35:47;;;;;;;27.13;14.63;;;-2.80;99.90;;;;;;5054954;28;20025;-82
2021/12/22 00:38:16;;;;;;;28.15;16.05;;;-3.00;99.90;;;;;;5056197;28;20499;-82
2021/12/22 00:40:43;;;;;;;29.08;14.32;;;-3.00;99.90;;;;;;5055957;28;20051;-82
2021/12/22 00:43:10;;;;;;;31.45;15.38;;;-3.10;99.90;;;;;;5055932;28;20075;-82
2021/12/22 00:45:36;;;;;;;30.20;16.27;;;-2.90;99.90;;;;;;5055944;28;20071;-82
2021/12/22 00:48:07;;;;;;;25.73;15.43;;;-2.90;99.90;;;;;;5054613;28;20083;-82
2021/12/22 00:50:34;;;;;;;25.60;15.68;;;-2.80;99.90;;;;;;5054536;28;20090;-82
2021/12/22 00:53:01;;;;;;;31.60;15.10;;;-2.70;99.90;;;;;;5055808;28;20558;-82
2021/12/22 00:55:27;;;;;;;31.75;15.38;;;-2.50;99.90;;;;;;5054476;28;20146;-82
2021/12/22 00:57:53;;;;;;;27.52;13.93;;;-2.40;99.90;;;;;;5054380;28;20029;-82
2021/12/22 01:00:21;;;;;;;31.25;16.08;;;-2.00;99.90;;;;;;5055583;28;20389;-82
2021/12/22 01:02:47;;;;;;;33.63;15.13;;;-2.60;99.90;;;;;;5056184;28;20036;-82
2021/12/22 01:05:15;;;;;;;28.35;15.30;;;-2.70;99.90;;;;;;5054374;28;20017;-82
2021/12/22 01:07:43;;;;;;;28.40;14.90;;;-2.40;99.90;;;;;;5054296;28;20017;-82
2021/12/22 01:10:10;;;;;;;29.02;14.85;;;-3.00;99.90;;;;;;5055902;28;20377;-82
2021/12/22 01:12:36;;;;;;;26.50;14.25;;;-3.10;99.90;;;;;;5054304;28;20021;-82
2021/12/22 01:15:05;;;;;;;28.52;14.75;;;-3.00;99.90;;;;;;5055391;28;20410;-82
2021/12/22 01:17:37;;;;;;;26.00;14.93;;;-3.10;99.90;;;;;;5055308;28;20032;-82
2021/12/22 01:20:11;;;;;;;25.45;14.90;;;-3.20;99.90;;;;;;5053964;28;20458;-82
2021/12/22 01:22:48;;;;;;;31.77;15.73;;;-3.00;99.90;;;;;;5055556;28;20025;-81
2021/12/22 01:25:21;;;;;;;27.60;15.50;;;-2.80;99.90;;;;;;5055492;28;20035;-82
2021/12/22 01:27:47;;;;;;;30.27;15.10;;;-2.70;99.90;;;;;;5055133;28;20469;-82
2021/12/22 01:30:22;;;;;;;28.02;14.63;;;-2.80;99.90;;;;;;5053909;28;20640;-82
2021/12/22 01:32:50;;;;;;;30.00;16.15;;;-2.40;99.90;;;;;;5053589;28;20025;-82
2021/12/22 01:35:18;;;;;;;25.25;14.27;;;-2.30;99.90;;;;;;5053881;28;20500;-82
2021/12/22 01:37:44;;;;;;;27.33;13.07;;;-2.30;99.90;;;;;;5053740;28;20036;-82
2021/12/22 01:40:12;;;;;;;58.88;22.85;;;-2.80;99.90;;;;;;5053479;28;20049;-82
2021/12/22 01:42:39;;;;;;;29.80;14.65;;;-3.20;99.90;;;;;;5053799;28;20024;-82
2021/12/22 01:50:44;;;;;;;29.30;14.32;;;-2.80;99.90;;;;;;5055154;28;20175;-82
2021/12/22 01:53:40;;;;;;;23.63;14.70;;;-2.70;99.90;;;;;;5053557;28;20040;-82
2021/12/22 01:56:25;;;;;;;29.85;15.60;;;-2.40;99.90;;;;;;5053469;28;20032;-82
2021/12/22 01:58:54;;;;;;;24.92;13.57;;;-2.50;99.90;;;;;;5053413;28;20027;-82
2021/12/22 02:01:21;;;;;;;22.48;13.10;;;-2.60;99.90;;;;;;5053167;28;20025;-82
2021/12/22 02:03:49;;;;;;;22.27;12.80;;;-2.50;99.90;;;;;;5053276;28;20028;-82
2021/12/22 02:06:16;;;;;;;22.55;13.25;;;-2.90;99.90;;;;;;5053163;28;20546;-82
2021/12/22 02:08:44;;;;;;;30.13;12.02;;;-3.20;99.90;;;;;;5053168;28;20025;-81
2021/12/22 02:11:11;;;;;;;25.50;13.05;;;-3.20;99.90;;;;;;5053008;28;20025;-82
2021/12/22 02:13:41;;;;;;;20.13;12.35;;;-3.10;99.90;;;;;;5054707;28;20500;-82
2021/12/22 02:16:10;;;;;;;22.00;13.38;;;-3.10;99.90;;;;;;5053096;28;20033;-82
2021/12/22 02:18:41;;;;;;;24.88;13.25;;;-3.00;99.90;;;;;;5052962;28;20025;-82
2021/12/22 02:21:08;;;;;;;25.20;13.32;;;-2.50;99.90;;;;;;5052844;28;20079;-82
2021/12/22 02:23:34;;;;;;;25.15;13.55;;;-2.70;99.90;;;;;;5052812;28;20499;-82
2021/12/22 02:26:12;;;;;;;23.17;12.27;;;-2.80;99.90;;;;;;5052766;28;20052;-82
2021/12/22 02:28:43;;;;;;;21.83;12.52;;;-2.50;99.90;;;;;;5052716;28;20474;-82
2021/12/22 02:31:19;;;;;;;25.85;13.23;;;-2.20;99.90;;;;;;5054223;28;20024;-82
2021/12/22 02:33:48;;;;;;;21.85;12.90;;;-2.20;99.90;;;;;;5052610;28;20071;-82
2021/12/22 02:38:45;;;;;;;23.48;13.10;;;-3.10;99.90;;;;;;5053623;28;20396;-82
2021/12/22 02:41:15;;;;;;;20.75;12.73;;;-3.10;99.90;;;;;;5052385;28;20029;-82
2021/12/22 02:43:52;;;;;;;22.23;12.30;;;-2.90;99.90;;;;;;5052409;28;20029;-81
2021/12/22 02:46:24;;;;;;;25.05;13.65;;;-2.50;99.90;;;;;;5052046;28;20021;-82
2021/12/22 02:48:51;;;;;;;23.35;12.10;;;-3.00;99.90;;;;;;5053716;28;20079;-82
2021/12/22 02:51:18;;;;;;;24.48;12.57;;;-2.80;99.90;;;;;;5052290;28;20028;-82
2021/12/22 02:54:03;;;;;;;24.85;12.65;;;-2.70;99.90;;;;;;5053578;28;20033;-81
2021/12/22 02:59:33;;;;;;;22.95;13.20;;;-3.20;99.90;;;;;;5053419;28;20040;-81
2021/12/22 03:04:34;;;;;;;23.60;13.10;;;-3.00;99.90;;;;;;5053364;28;20028;-81
2021/12/22 03:07:05;;;;;;;25.45;13.20;;;-2.90;99.90;;;;;;5053866;28;20086;-81
2021/12/22 03:09:34;;;;;;;25.85;12.88;;;-2.90;99.90;;;;;;5052056;28;20100;-81
2021/12/22 03:12:03;;;;;;;21.88;12.07;;;-3.00;99.90;;;;;;5052041;28;20477;-81
2021/12/22 03:14:29;;;;;;;27.02;14.43;;;-2.50;99.90;;;;;;5051885;28;20032;-81
2021/12/22 03:16:56;;;;;;;23.50;12.88;;;-2.50;99.90;;;;;;5051823;28;20025;-81
2021/12/22 03:19:25;;;;;;;25.15;13.93;;;-3.10;99.90;;;;;;5053044;28;20028;-81
2021/12/22 03:22:00;;;;;;;25.77;14.82;;;-3.30;99.90;;;;;;5051814;28;20029;-82
2021/12/22 03:24:27;;;;;;;27.35;15.32;;;-3.40;99.90;;;;;;5051787;28;20116;-81
2021/12/22 03:26:54;;;;;;;29.17;13.88;;;-3.80;99.90;;;;;;5053007;28;20036;-81
2021/12/22 03:29:20;;;;;;;29.80;14.00;;;-3.80;99.90;;;;;;5053310;28;20078;-81
2021/12/22 03:31:47;;;;;;;22.88;12.93;;;-3.60;99.90;;;;;;5053144;28;20017;-82
2021/12/22 03:34:14;;;;;;;20.67;12.65;;;-2.90;99.90;;;;;;5052960;28;20112;-82
2021/12/22 03:36:43;;;;;;;25.30;13.35;;;-3.20;99.90;;;;;;5052880;28;20024;-81
2021/12/22 03:39:12;;;;;;;24.55;13.05;;;-3.20;99.90;;;;;;5052721;28;20120;-81
2021/12/22 03:41:39;;;;;;;20.92;12.55;;;-3.30;99.90;;;;;;5053223;28;20028;-81
2021/12/22 03:44:06;;;;;;;26.40;13.45;;;-2.80;99.90;;;;;;5051583;28;20207;-81
2021/12/22 03:46:32;;;;;;;23.77;13.30;;;-2.70;99.90;;;;;;5052780;28;20484;-81
2021/12/22 03:48:58;;;;;;;21.70;12.80;;;-3.00;99.90;;;;;;5052687;28;20534;-81
2021/12/22 03:51:25;;;;;;;19.83;11.85;;;-3.20;99.90;;;;;;5052703;28;20052;-81
2021/12/22 03:53:51;;;;;;;20.17;12.27;;;-2.90;99.90;;;;;;5052941;28;20473;-81
2021/12/22 03:56:17;;;;;;;21.27;12.82;;;-2.90;99.90;;;;;;5054355;28;20025;-82
2021/12/22 03:58:42;;;;;;;20.85;11.77;;;-2.80;99.90;;;;;;5055494;28;20515;-81
2021/12/22 04:01:09;;;;;;;23.50;13.35;;;-2.80;99.90;;;;;;5055310;28;20106;-81
2021/12/22 04:03:36;;;;;;;23.55;11.77;;;-2.90;99.90;;;;;;5056692;28;20017;-81
2021/12/22 04:06:03;;;;;;;27.95;12.93;;;-3.00;99.90;;;;;;5055507;28;20029;-81
2021/12/22 04:08:28;;;;;;;21.17;12.32;;;-2.70;99.90;;;;;;5055284;28;20052;-81
2021/12/22 04:10:54;;;;;;;23.85;12.77;;;-3.00;99.90;;;;;;5056619;28;20057;-81
2021/12/22 04:13:20;;;;;;;20.60;11.38;;;-3.20;99.90;;;;;;5055303;28;20021;-81
2021/12/22 04:15:47;;;;;;;26.52;13.43;;;-3.30;99.90;;;;;;5055322;28;20111;-81
2021/12/22 04:18:13;;;;;;;18.15;12.23;;;-3.10;99.90;;;;;;5055088;28;20177;-81
2021/12/22 04:20:39;;;;;;;21.75;13.18;;;-2.90;99.90;;;;;;5055090;28;20029;-81
2021/12/22 04:23:06;;;;;;;21.33;12.70;;;-3.10;99.90;;;;;;5056521;28;20056;-81
2021/12/22 04:25:33;;;;;;;24.05;12.15;;;-3.20;99.90;;;;;;5055054;28;20017;-81
2021/12/22 04:28:04;;;;;;;25.08;12.40;;;-3.30;99.90;;;;;;5054991;28;20385;-82
2021/12/22 04:30:32;;;;;;;22.55;12.00;;;-2.90;99.90;;;;;;5055109;28;20033;-81
2021/12/22 04:32:59;;;;;;;23.75;12.82;;;-2.80;99.90;;;;;;5054856;28;20021;-81
2021/12/22 04:35:25;;;;;;;18.55;11.75;;;-2.60;99.90;;;;;;5056490;28;20108;-81
2021/12/22 04:37:51;;;;;;;22.77;12.63;;;-2.90;99.90;;;;;;5056217;28;20061;-81
2021/12/22 04:40:17;;;;;;;24.75;13.02;;;-3.10;99.90;;;;;;5054503;28;20049;-81
2021/12/22 04:42:43;;;;;;;23.02;12.75;;;-3.60;99.90;;;;;;5055977;28;20025;-81
2021/12/22 04:45:10;;;;;;;20.17;12.43;;;-3.70;99.90;;;;;;5054708;28;20025;-81
2021/12/22 04:47:36;;;;;;;26.35;11.75;;;-3.40;99.90;;;;;;5054519;28;20033;-81
2021/12/22 04:50:09;;;;;;;22.40;12.18;;;-3.50;99.90;;;;;;5056170;28;20468;-81
2021/12/22 04:52:42;;;;;;;23.95;13.02;;;-3.70;99.90;;;;;;5054604;28;20361;-81
2021/12/22 04:55:08;;;;;;;19.63;11.70;;;-3.70;99.90;;;;;;5054567;28;20028;-81
2021/12/22 04:57:34;;;;;;;19.05;12.13;;;-3.40;99.90;;;;;;5055781;28;20029;-81
2021/12/22 05:00:03;;;;;;;23.48;12.75;;;-3.70;99.90;;;;;;5055947;28;20491;-80
2021/12/22 05:02:29;;;;;;;20.65;11.55;;;-3.80;99.90;;;;;;5054550;28;20021;-81
2021/12/22 05:04:54;;;;;;;21.42;12.43;;;-3.50;99.90;;;;;;5056000;28;20104;-81
2021/12/22 05:07:20;;;;;;;28.25;13.43;;;-3.70;99.90;;;;;;5055174;28;20098;-81
2021/12/22 05:09:46;;;;;;;20.33;12.35;;;-3.80;99.90;;;;;;5055596;28;20024;-81
2021/12/22 05:12:12;;;;;;;23.35;13.05;;;-4.20;99.90;;;;;;5054523;28;20041;-81
2021/12/22 05:14:39;;;;;;;19.88;11.75;;;-3.80;99.90;;;;;;5055737;28;20025;-81
2021/12/22 05:17:06;;;;;;;17.80;11.88;;;-3.90;99.90;;;;;;5054193;28;20033;-81
2021/12/22 05:19:32;;;;;;;20.83;12.45;;;-3.50;99.90;;;;;;5054019;28;20028;-81
2021/12/22 05:21:58;;;;;;;25.45;14.35;;;-3.70;99.90;;;;;;5055843;28;20025;-81
2021/12/22 05:24:24;;;;;;;21.23;11.88;;;-3.80;99.90;;;;;;5055275;28;20476;-81
2021/12/22 05:26:50;;;;;;;22.73;12.85;;;-3.80;99.90;;;;;;5055240;28;20112;-81
2021/12/22 05:29:16;;;;;;;24.40;14.02;;;-3.60;99.90;;;;;;5053922;28;20025;-81
2021/12/22 05:31:42;;;;;;;24.75;13.18;;;-3.40;99.90;;;;;;5054018;28;20033;-81
2021/12/22 05:34:08;;;;;;;21.73;12.02;;;-2.90;99.90;;;;;;5055265;28;20421;-81
2021/12/22 05:36:34;;;;;;;22.42;13.05;;;-3.00;99.90;;;;;;5055228;28;20033;-81
2021/12/22 05:39:00;;;;;;;26.33;13.27;;;-2.90;99.90;;;;;;5053713;28;20049;-81
2021/12/22 05:41:26;;;;;;;24.63;13.27;;;-3.20;99.90;;;;;;5055098;28;20032;-81
2021/12/22 05:43:52;;;;;;;23.02;13.18;;;-2.80;99.90;;;;;;5053803;28;20525;-81
2021/12/22 05:46:17;;;;;;;23.95;13.50;;;-3.10;99.90;;;;;;5053755;28;20021;-81
2021/12/22 05:48:45;;;;;;;32.03;15.23;;;-3.40;99.90;;;;;;5053595;28;20075;-81
2021/12/22 05:51:11;;;;;;;26.40;14.75;;;-3.50;99.90;;;;;;5054990;28;20496;-81
2021/12/22 05:53:37;;;;;;;25.23;14.73;;;-3.70;99.90;;;;;;5054837;28;20025;-81
2021/12/22 05:56:03;;;;;;;19.52;13.32;;;-3.70;99.90;;;;;;5054850;28;20507;-81
2021/12/22 05:58:29;;;;;;;22.30;12.70;;;-3.60;99.90;;;;;;5054823;28;20029;-81
2021/12/22 06:00:55;;;;;;;25.35;13.88;;;-3.20;99.90;;;;;;5054644;28;20148;-81
2021/12/22 06:03:21;;;;;;;23.08;13.10;;;-3.50;99.90;;;;;;5054799;28;20024;-81
2021/12/22 06:05:47;;;;;;;27.33;16.70;;;-3.30;99.90;;;;;;5053343;28;20025;-81
2021/12/22 06:08:13;;;;;;;25.85;13.85;;;-3.10;99.90;;;;;;5053319;28;20130;-81
2021/12/22 06:10:39;;;;;;;23.83;12.35;;;-3.50;99.90;;;;;;5054544;28;20114;-81
2021/12/22 06:13:07;;;;;;;26.98;14.27;;;-3.30;99.90;;;;;;5054748;28;20068;-81
2021/12/22 06:15:34;;;;;;;23.23;14.43;;;-3.50;99.90;;;;;;5053228;28;20513;-81
2021/12/22 06:18:02;;;;;;;32.25;16.33;;;-3.80;99.90;;;;;;5054422;28;20108;-81
2021/12/22 06:20:29;;;;;;;28.60;15.95;;;-4.10;99.90;;;;;;5051946;28;20021;-81
2021/12/22 06:22:55;;;;;;;23.15;13.93;;;-4.50;99.90;;;;;;5053050;28;20532;-81
2021/12/22 06:25:21;;;;;;;24.40;13.68;;;-4.00;99.90;;;;;;5052955;28;20048;-81
2021/12/22 06:27:47;;;;;;;21.90;13.90;;;-3.40;99.90;;;;;;5054268;28;20017;-81
2021/12/22 06:30:13;;;;;;;27.88;14.35;;;-3.10;99.90;;;;;;5053370;28;20029;-81
2021/12/22 06:32:39;;;;;;;28.38;13.77;;;-3.20;99.90;;;;;;5036103;28;20041;-80
2021/12/22 06:35:06;;;;;;;28.85;15.80;;;-3.40;99.90;;;;;;5054072;28;20472;-81
2021/12/22 06:37:32;;;;;;;25.17;14.68;;;-3.20;99.90;;;;;;5052695;28;20021;-81
2021/12/22 06:39:58;;;;;;;30.48;17.63;;;-3.70;99.90;;;;;;5052392;28;20144;-81
2021/12/22 06:42:24;;;;;;;27.70;15.52;;;-3.30;99.90;;;;;;5053930;28;20025;-81
2021/12/22 06:44:51;;;;;;;30.05;15.88;;;-3.70;99.90;;;;;;5053895;28;20480;-81
2021/12/22 06:47:16;;;;;;;25.35;15.57;;;-3.40;99.90;;;;;;5053991;28;20025;-81
2021/12/22 06:49:44;;;;;;;24.15;15.50;;;-3.10;99.90;;;;;;5053746;28;20036;-81
2021/12/22 06:52:09;;;;;;;24.42;15.13;;;-3.30;99.90;;;;;;5052437;28;20561;-82
2021/12/22 06:54:35;;;;;;;25.25;14.45;;;-3.40;99.90;;;;;;5053658;28;20099;-81
2021/12/22 06:57:02;;;;;;;26.52;14.38;;;-3.70;99.90;;;;;;5052401;28;20021;-81
2021/12/22 06:59:28;;;;;;;28.63;14.75;;;-3.60;99.90;;;;;;5052238;28;20035;-82
2021/12/22 07:01:53;;;;;;;22.20;13.75;;;-3.60;99.90;;;;;;5053587;28;20017;-81
2021/12/22 07:04:20;;;;;;;30.45;18.58;;;-3.90;99.90;;;;;;5052280;28;20388;-81
2021/12/22 07:06:46;;;;;;;23.55;14.70;;;-4.20;99.90;;;;;;5052349;28;20555;-81
2021/12/22 07:09:12;;;;;;;27.10;14.80;;;-3.80;99.90;;;;;;5053414;28;20052;-81
2021/12/22 07:11:39;;;;;;;28.33;15.18;;;-3.50;99.90;;;;;;5053415;28;20036;-81
2021/12/22 07:14:07;;;;;;;29.17;16.63;;;-3.60;99.90;;;;;;5052128;28;20049;-81
2021/12/22 07:16:33;;;;;;;29.27;15.40;;;-3.90;99.90;;;;;;5052074;28;20048;-81
2021/12/22 07:18:59;;;;;;;32.25;16.10;;;-4.00;99.90;;;;;;5052031;28;20115;-81
2021/12/22 07:21:25;;;;;;;23.67;14.13;;;-4.10;99.90;;;;;;5051893;28;20029;-81
2021/12/22 07:23:52;;;;;;;25.95;14.73;;;-3.80;99.90;;;;;;5053238;28;20021;-82
2021/12/22 07:26:18;;;;;;;33.42;17.98;;;-3.50;99.90;;;;;;5053234;28;20060;-81
2021/12/22 07:28:46;;;;;;;32.38;18.25;;;-3.90;99.90;;;;;;5053416;28;20397;-81
2021/12/22 07:31:13;;;;;;;26.13;15.30;;;-4.00;99.90;;;;;;5051856;28;20078;-81
2021/12/22 07:33:46;;;;;;;34.95;18.40;;;-3.90;99.90;;;;;;5051830;28;20032;-81
2021/12/22 07:36:12;;;;;;;33.85;17.33;;;-3.80;99.90;;;;;;5051818;28;20112;-81
2021/12/22 07:39:06;;;;;;;32.45;17.80;;;-3.90;99.90;;;;;;5051539;28;20183;-81
2021/12/22 07:41:33;;;;;;;31.45;17.95;;;-3.90;99.90;;;;;;5053167;28;20416;-81
2021/12/22 07:43:58;;;;;;;33.83;18.30;;;-3.80;99.90;;;;;;5051758;28;20029;-81
2021/12/22 07:46:24;;;;;;;38.10;18.17;;;-3.50;99.90;;;;;;5053234;28;20049;-81
2021/12/22 07:48:50;;;;;;;38.13;18.50;;;-3.40;99.90;;;;;;5051614;28;20385;-81
2021/12/22 07:51:16;;;;;;;36.78;18.65;;;-3.20;99.90;;;;;;5051668;28;20021;-82
2021/12/22 07:53:42;;;;;;;36.67;20.08;;;-2.90;99.90;;;;;;5052968;28;20091;-81
2021/12/22 07:56:08;;;;;;;36.25;19.42;;;-2.80;99.90;;;;;;5051640;28;20481;-81
2021/12/22 07:58:33;;;;;;;39.47;20.20;;;-3.00;99.90;;;;;;5051615;28;20025;-81
2021/12/22 08:01:00;;;;;;;38.25;19.27;;;-3.20;99.90;;;;;;5052876;28;20108;-81
2021/12/22 08:03:26;;;;;;;42.08;20.92;;;-2.70;99.90;;;;;;5051540;28;20021;-81
2021/12/22 08:05:52;;;;;;;32.42;19.55;;;-2.40;99.90;;;;;;5053403;28;20372;-81
2021/12/22 08:08:19;;;;;;;37.55;17.73;;;-2.50;99.90;;;;;;5052821;28;20027;-81
2021/12/22 08:10:46;;;;;;;29.85;17.42;;;-2.20;99.90;;;;;;5051510;28;20025;-80
2021/12/22 08:13:12;;;;;;;30.27;17.52;;;-1.80;99.90;;;;;;5035059;28;20029;-80
2021/12/22 08:15:37;;;;;;;27.33;16.77;;;-1.60;99.90;;;;;;5052766;28;20021;-80
2021/12/22 08:18:03;;;;;;;27.65;16.40;;;-1.70;99.90;;;;;;5051348;28;20036;-81
2021/12/22 08:20:29;;;;;;;28.17;16.30;;;-1.30;99.90;;;;;;5051332;28;20058;-81
2021/12/22 08:22:55;;;;;;;28.65;16.15;;;-1.30;99.90;;;;;;5052945;28;20101;-80
2021/12/22 08:25:21;;;;;;;30.92;16.27;;;-1.40;99.90;;;;;;5051354;28;20070;-81
2021/12/22 08:27:47;;;;;;;29.25;17.35;;;-0.90;99.90;;;;;;5052590;28;20025;-80
2021/12/22 08:30:13;;;;;;;29.08;17.13;;;-0.60;99.90;;;;;;5051305;28;20029;-80
2021/12/22 08:32:40;;;;;;;34.70;19.60;;;-0.70;99.90;;;;;;5051262;28;20493;-80
2021/12/22 08:35:08;;;;;;;37.25;21.58;;;-0.80;99.90;;;;;;5051160;28;20057;-80
2021/12/22 08:40:21;;;;;;;30.77;16.83;;;-0.90;99.90;;;;;;5052297;28;20087;-80
2021/12/22 08:42:50;;;;;;;32.63;18.05;;;-0.70;99.90;;;;;;5053081;28;20025;-80
2021/12/22 08:45:17;;;;;;;27.60;16.48;;;-0.70;99.90;;;;;;5054863;28;20022;-80
2021/12/22 08:47:44;;;;;;;28.83;16.92;;;-0.80;99.90;;;;;;5054774;28;20033;-80
2021/12/22 08:50:12;;;;;;;31.83;18.40;;;-0.70;99.90;;;;;;5054829;28;20021;-80
2021/12/22 08:52:38;;;;;;;32.85;18.63;;;-0.80;99.90;;;;;;5038318;28;20029;-79
2021/12/22 08:55:05;;;;;;;32.08;19.85;;;-0.80;99.90;;;;;;5054706;28;20025;-80
2021/12/22 08:57:31;;;;;;;39.08;20.10;;;-0.90;99.90;;;;;;5056197;28;20052;-80
2021/12/22 08:59:57;;;;;;;35.00;19.00;;;-1.10;99.90;;;;;;5054585;28;20071;-80
2021/12/22 09:02:25;;;;;;;34.47;19.58;;;-1.20;99.90;;;;;;5054493;28;20029;-80
2021/12/22 09:04:51;;;;;;;35.35;20.10;;;-1.00;99.90;;;;;;5055857;28;20384;-80
2021/12/22 09:07:16;;;;;;;38.75;21.52;;;-0.90;99.90;;;;;;5054508;28;20029;-80
2021/12/22 09:09:44;;;;;;;34.95;20.52;;;-0.70;99.90;;;;;;5055717;28;20150;-80
2021/12/22 09:12:10;;;;;;;34.90;19.35;;;-0.40;99.90;;;;;;5054396;28;20031;-80
2021/12/22 09:14:35;;;;;;;35.80;19.88;;;-0.20;99.90;;;;;;5055955;28;20029;-80
2021/12/22 09:17:02;;;;;;;34.65;19.70;;;-0.20;99.90;;;;;;5055531;28;20021;-80
2021/12/22 09:19:27;;;;;;;33.17;19.25;;;-0.10;99.90;;;;;;5055453;28;20494;-79
2021/12/22 09:21:53;;;;;;;37.40;21.80;;;0.40;99.90;;;;;;5055798;28;20103;-79
2021/12/22 09:24:19;;;;;;;38.38;21.17;;;0.40;99.90;;;;;;5055379;28;20088;-78
2021/12/22 09:26:46;;;;;;;35.00;18.52;;;0.20;99.90;;;;;;5055421;28;20025;-79
2021/12/22 09:29:12;;;;;;;30.15;18.70;;;0.40;99.90;;;;;;5054130;28;20488;-79
2021/12/22 09:31:38;;;;;;;28.58;17.67;;;1.00;99.90;;;;;;5054074;28;20021;-80
2021/12/22 09:34:05;;;;;;;35.88;18.05;;;1.30;99.90;;;;;;5053928;28;20025;-80
2021/12/22 09:36:31;;;;;;;29.20;16.80;;;1.70;99.90;;;;;;5053983;28;20431;-80
2021/12/22 09:38:57;;;;;;;26.88;17.30;;;1.60;99.90;;;;;;5053778;28;20049;-80
2021/12/22 09:41:23;;;;;;;29.55;18.73;;;1.80;99.90;;;;;;5055652;28;20059;-80
2021/12/22 09:43:51;;;;;;;27.70;16.65;;;1.50;99.90;;;;;;5053828;28;20362;-79
2021/12/22 09:46:20;;;;;;;27.98;17.38;;;1.80;99.90;;;;;;5055127;28;20028;-79
2021/12/22 09:53:52;;;;;;;25.75;15.82;;;1.80;99.90;;;;;;5055007;28;20112;-80
2021/12/22 09:56:21;;;;;;;28.00;17.73;;;2.20;99.90;;;;;;5053614;28;20021;-79
2021/12/22 09:58:48;;;;;;;27.42;16.73;;;2.00;99.90;;;;;;5053533;28;20053;-80
2021/12/22 10:01:15;;;;;;;23.30;14.90;;;2.00;99.90;;;;;;5053644;28;20082;-82
2021/12/22 10:03:41;;;;;;;28.75;16.63;;;1.90;99.90;;;;;;5053421;28;20392;-83
2021/12/22 10:06:07;;;;;;;29.30;17.27;;;2.10;99.90;;;;;;5054655;28;20104;-83
2021/12/22 10:08:34;;;;;;;26.70;16.17;;;2.10;99.90;;;;;;5053338;28;20021;-82
2021/12/22 10:11:10;;;;;;;25.10;17.00;;;2.20;99.90;;;;;;5053288;28;20052;-82
2021/12/22 10:13:38;;;;;;;29.88;17.13;;;2.00;99.90;;;;;;5054449;28;20060;-83
2021/12/22 10:16:19;;;;;;;27.75;16.70;;;1.90;99.90;;;;;;5053081;28;20366;-83
2021/12/22 10:18:46;;;;;;;28.42;18.17;;;1.40;99.90;;;;;;5054710;28;20036;-83
2021/12/22 10:21:16;;;;;;;27.45;17.13;;;1.30;99.90;;;;;;5054242;28;20031;-83
2021/12/22 10:23:45;;;;;;;29.33;17.00;;;1.50;99.90;;;;;;5054982;28;20056;-83
2021/12/22 10:26:16;;;;;;;29.55;18.33;;;1.60;99.90;;;;;;5053070;28;20481;-83
2021/12/22 10:28:59;;;;;;;27.88;17.00;;;1.30;99.90;;;;;;5053009;28;20025;-84
2021/12/22 10:31:48;;;;;;;27.70;17.63;;;1.10;99.90;;;;;;5054302;28;20024;-84
2021/12/22 10:34:18;;;;;;;28.63;17.23;;;0.90;99.90;;;;;;5052896;28;20389;-84
2021/12/22 10:36:57;;;;;;;27.77;17.17;;;0.80;99.90;;;;;;5052804;28;20064;-84
2021/12/22 10:39:29;;;;;;;28.17;17.63;;;1.30;99.90;;;;;;5053126;28;20592;-84
2021/12/22 10:42:07;;;;;;;29.23;17.08;;;1.50;99.90;;;;;;5052711;28;20059;-84
2021/12/22 10:44:38;;;;;;;30.77;18.00;;;1.60;99.90;;;;;;5053997;28;20090;-84
2021/12/22 10:49:14;;;;;;;28.83;17.30;;;1.80;99.90;;;;;;5052656;28;20147;-84
2021/12/22 10:50:24;;;;;;;35.75;17.90;;;1.90;99.90;;;;;;5053974;28;20075;-84
2021/12/22 10:52:50;;;;;;;28.63;16.90;;;2.10;99.90;;;;;;5052632;28;20435;-84
2021/12/22 10:55:16;;;;;;;24.77;15.88;;;2.30;99.90;;;;;;5052537;28;20032;-85
2021/12/22 10:57:44;;;;;;;26.08;16.42;;;2.50;99.90;;;;;;5053772;28;20025;-86
2021/12/22 11:00:28;;;;;;;26.48;17.05;;;2.80;99.90;;;;;;5052358;28;20481;-86
2021/12/22 11:03:09;;;;;;;23.55;15.50;;;2.80;99.90;;;;;;5052411;28;20025;-85
2021/12/22 11:05:47;;;;;;;29.20;16.05;;;3.00;99.90;;;;;;5051777;28;20123;-85
2021/12/22 11:08:21;;;;;;;24.92;15.52;;;3.10;99.90;;;;;;5053623;28;20484;-86
2021/12/22 11:10:47;;;;;;;26.55;17.33;;;3.20;99.90;;;;;;5053492;28;20025;-86
2021/12/22 11:13:21;;;;;;;31.77;17.83;;;2.90;99.90;;;;;;5052126;28;20033;-84
2021/12/22 11:15:47;;;;;;;18.05;12.90;;;2.80;99.90;;;;;;5052196;28;20025;-85
2021/12/22 11:18:29;;;;;;;22.25;15.30;;;3.30;99.90;;;;;;5052139;28;20107;-86
2021/12/22 11:21:21;;;;;;;28.60;17.13;;;3.30;99.90;;;;;;5053361;28;20488;-86
2021/12/22 11:23:47;;;;;;;27.50;16.20;;;3.60;99.90;;;;;;5052151;28;20106;-86
2021/12/22 11:26:13;;;;;;;28.45;16.58;;;3.70;99.90;;;;;;5053433;28;20033;-86
2021/12/22 11:28:39;;;;;;;26.65;16.80;;;3.60;99.90;;;;;;5053567;28;20036;-86
2021/12/22 11:31:06;;;;;;;25.50;16.17;;;3.30;99.90;;;;;;5051932;28;20025;-83
2021/12/22 11:33:33;;;;;;;23.60;15.95;;;3.30;99.90;;;;;;5035438;28;20040;-85
2021/12/22 11:36:00;;;;;;;24.52;16.70;;;3.70;99.90;;;;;;5052041;28;20028;-86
2021/12/22 11:38:28;;;;;;;23.38;16.02;;;3.90;99.90;;;;;;5053181;28;20024;-85
2021/12/22 11:41:02;;;;;;;25.80;16.35;;;3.70;99.90;;;;;;5051928;28;20037;-85
2021/12/22 11:43:28;;;;;;;27.50;17.15;;;3.50;99.90;;;;;;5052997;28;20063;-85
2021/12/22 11:45:55;;;;;;;27.00;16.52;;;3.30;99.90;;;;;;5051742;28;20021;-85
2021/12/22 11:48:21;;;;;;;25.50;17.05;;;3.20;99.90;;;;;;5052922;28;20531;-85
2021/12/22 11:50:48;;;;;;;24.30;16.00;;;3.30;99.90;;;;;;5053000;28;20056;-86
2021/12/22 11:53:15;;;;;;;24.73;16.50;;;3.40;99.90;;;;;;5051792;28;20025;-86
2021/12/22 11:56:00;;;;;;;22.83;15.77;;;3.80;99.90;;;;;;5051937;28;20029;-86
2021/12/22 11:58:35;;;;;;;31.25;17.02;;;3.90;99.90;;;;;;5051769;28;20393;-85
2021/12/22 12:01:08;;;;;;;30.15;19.75;;;3.40;99.90;;;;;;5051673;28;20111;-84
2021/12/22 12:03:44;;;;;;;28.58;17.15;;;3.60;99.90;;;;;;5051707;28;20017;-86
2021/12/22 12:06:17;;;;;;;22.33;15.38;;;3.80;99.90;;;;;;5052953;28;20608;-87
2021/12/22 12:08:51;;;;;;;30.15;18.15;;;4.00;99.90;;;;;;5051736;28;20051;-88
2021/12/22 12:11:45;;;;;;;28.13;17.30;;;4.30;99.90;;;;;;5052049;28;20052;-87
2021/12/22 12:23:27;;;;;;;21.65;14.88;;;5.80;99.90;;;;;;5057093;28;20052;-86
2021/12/22 12:25:54;;;;;;;24.65;16.33;;;6.20;99.90;;;;;;5055355;28;20051;-84
2021/12/22 12:28:21;;;;;;;25.20;16.42;;;5.40;99.90;;;;;;5055379;28;20104;-84
2021/12/22 12:30:50;;;;;;;24.35;16.33;;;4.80;99.90;;;;;;5057627;28;20032;-85
2021/12/22 12:33:21;;;;;;;23.80;15.27;;;4.90;99.90;;;;;;5066350;28;20031;-85
2021/12/22 12:35:53;;;;;;;24.13;14.30;;;4.90;99.90;;;;;;5063277;28;20546;-86
2021/12/22 12:38:30;;;;;;;24.35;16.02;;;5.40;99.90;;;;;;5055585;28;20396;-85
2021/12/22 12:40:57;;;;;;;22.35;15.02;;;5.50;99.90;;;;;;5054935;28;20072;-84
2021/12/22 12:43:41;;;;;;;26.52;17.75;;;4.70;99.90;;;;;;5055037;28;20053;-86
2021/12/22 12:46:31;;;;;;;24.58;15.38;;;5.20;99.90;;;;;;5055028;28;20021;-87
2021/12/22 12:49:16;;;;;;;25.75;17.38;;;6.00;99.90;;;;;;5056228;28;20401;-86
2021/12/22 12:51:42;;;;;;;23.45;15.73;;;6.70;99.90;;;;;;5054834;28;20025;-86
2021/12/22 12:54:09;;;;;;;22.05;15.75;;;7.00;99.90;;;;;;5054893;28;20370;-86
2021/12/22 12:56:40;;;;;;;23.77;14.48;;;7.20;99.90;;;;;;5054905;28;20029;-86
2021/12/22 12:59:11;;;;;;;23.25;15.80;;;7.40;99.90;;;;;;5054939;28;20032;-85
2021/12/22 13:01:59;;;;;;;27.23;17.33;;;7.10;99.90;;;;;;5054730;28;20384;-86
2021/12/22 13:04:30;;;;;;;25.60;17.42;;;7.90;99.90;;;;;;5056125;28;20477;-88
2021/12/22 13:07:20;;;;;;;25.50;16.70;;;8.00;99.90;;;;;;5054773;28;20453;-86
2021/12/22 13:09:49;;;;;;;22.88;15.68;;;8.70;99.90;;;;;;5054680;28;20021;-85